Time;durP1;ratioP1;P1;durP2;ratioP2;P2;SDS_P1;SDS_P2;PMS_P1;PMS_P2;Temp;Humidity;BMP_temperature;BMP_pressure;BME280_temperature;BME280_humidity;BME280_pressure;Samples;Min_cycle;Max_cycle;Signal;HPM_P1;HPM_P2
2023/11/24 00:00:53;;;;;;;8.82;1.40;;;12.30;99.90;;;;;;5074185;28;20233;-79
2023/11/24 00:03:19;;;;;;;5.47;1.57;;;12.30;99.90;;;;;;5071892;28;20171;-79
2023/11/24 00:05:46;;;;;;;7.83;1.87;;;12.20;99.90;;;;;;5078397;28;20642;-79
2023/11/24 00:08:11;;;;;;;18.07;2.80;;;12.10;99.90;;;;;;5069910;28;20168;-79
2023/11/24 00:10:37;;;;;;;10.63;1.87;;;12.00;99.90;;;;;;5089295;28;20983;-79
2023/11/24 00:13:03;;;;;;;5.07;1.30;;;12.00;99.90;;;;;;5070040;28;20167;-79
2023/11/24 00:15:28;;;;;;;6.70;1.50;;;11.90;99.90;;;;;;5086364;28;20674;-79
2023/11/24 00:17:54;;;;;;;9.33;2.37;;;11.90;99.90;;;;;;5072388;28;20259;-79
2023/11/24 00:20:20;;;;;;;12.43;2.50;;;11.90;99.90;;;;;;5068444;28;20836;-79
2023/11/24 00:22:46;;;;;;;9.93;1.87;;;11.90;99.90;;;;;;5071021;28;20255;-78
2023/11/24 00:25:14;;;;;;;7.63;1.63;;;11.80;99.90;;;;;;5077638;28;20200;-79
2023/11/24 00:27:40;;;;;;;8.68;1.70;;;11.80;99.90;;;;;;5078803;28;20574;-78
2023/11/24 00:30:07;;;;;;;7.23;1.63;;;11.80;99.90;;;;;;5067105;28;20756;-79
2023/11/24 00:32:34;;;;;;;7.43;1.73;;;11.80;99.90;;;;;;5079819;28;20207;-79
2023/11/24 00:35:01;;;;;;;8.00;1.67;;;11.80;99.90;;;;;;5056598;28;20286;-79
2023/11/24 00:37:28;;;;;;;11.00;2.30;;;11.70;99.90;;;;;;5066937;28;20598;-79
2023/11/24 00:39:55;;;;;;;9.55;1.90;;;11.70;99.90;;;;;;5055089;28;21018;-79
2023/11/24 00:42:21;;;;;;;11.97;2.00;;;11.70;99.90;;;;;;5043010;28;20173;-79
2023/11/24 00:44:47;;;;;;;9.88;2.25;;;11.70;99.90;;;;;;5086871;28;20648;-78
2023/11/24 00:47:12;;;;;;;10.97;2.87;;;11.70;99.90;;;;;;5071400;28;20188;-79
2023/11/24 00:49:39;;;;;;;7.70;2.10;;;11.60;99.90;;;;;;5069701;28;20176;-79
2023/11/24 00:52:05;;;;;;;11.15;2.38;;;11.60;99.90;;;;;;5053569;28;20173;-79
2023/11/24 00:54:31;;;;;;;11.38;2.40;;;11.60;99.90;;;;;;5069418;28;20216;-79
2023/11/24 00:56:57;;;;;;;15.33;3.07;;;11.60;99.90;;;;;;5064801;28;20187;-79
2023/11/24 00:59:23;;;;;;;14.63;1.90;;;11.60;99.90;;;;;;5068903;28;20950;-78
2023/11/24 01:01:48;;;;;;;14.83;2.53;;;11.60;99.90;;;;;;5076029;28;20203;-78
2023/11/24 01:04:15;;;;;;;10.47;2.30;;;11.60;99.90;;;;;;5070223;28;20203;-78
2023/11/24 01:06:41;;;;;;;11.70;1.98;;;11.60;99.90;;;;;;5054115;28;20172;-78
2023/11/24 01:09:09;;;;;;;10.27;1.95;;;11.60;99.90;;;;;;5081785;28;20172;-78
2023/11/24 01:11:35;;;;;;;13.20;3.05;;;11.50;99.90;;;;;;5059442;28;20176;-77
2023/11/24 01:14:01;;;;;;;12.30;2.37;;;11.50;99.90;;;;;;5065729;28;20686;-77
2023/11/24 01:16:28;;;;;;;10.60;1.98;;;11.60;99.90;;;;;;5075872;28;20595;-78
2023/11/24 01:18:56;;;;;;;20.13;4.75;;;11.50;99.90;;;;;;5079027;28;20168;-79
2023/11/24 01:21:22;;;;;;;12.80;2.90;;;11.50;99.90;;;;;;5070305;28;20187;-79
2023/11/24 01:23:47;;;;;;;10.10;3.43;;;11.50;99.90;;;;;;5072055;28;20278;-78
2023/11/24 01:26:15;;;;;;;9.60;2.17;;;11.50;99.90;;;;;;5062676;28;20579;-78
2023/11/24 01:28:41;;;;;;;11.80;3.03;;;11.50;99.90;;;;;;5051903;28;20598;-78
2023/11/24 01:31:07;;;;;;;10.35;2.63;;;11.50;99.90;;;;;;5052119;28;20191;-78
2023/11/24 01:33:33;;;;;;;10.40;2.33;;;11.50;99.90;;;;;;5068186;28;20177;-78
2023/11/24 01:36:00;;;;;;;15.70;1.83;;;11.40;99.90;;;;;;5053401;28;20701;-79
2023/11/24 01:38:26;;;;;;;15.20;3.10;;;11.40;99.90;;;;;;5057931;28;20600;-78
2023/11/24 01:40:52;;;;;;;9.67;1.90;;;11.50;99.90;;;;;;5062468;28;20188;-78
2023/11/24 01:43:18;;;;;;;11.53;2.07;;;11.40;99.90;;;;;;5059893;28;20637;-78
2023/11/24 01:45:45;;;;;;;10.73;2.53;;;11.40;99.90;;;;;;5073169;28;20655;-78
2023/11/24 01:48:14;;;;;;;6.05;1.75;;;11.40;99.90;;;;;;5046856;28;20168;-78
2023/11/24 01:50:40;;;;;;;6.55;1.60;;;11.40;99.90;;;;;;5073066;28;20173;-78
2023/11/24 01:53:06;;;;;;;8.63;1.97;;;11.40;99.90;;;;;;5071924;28;20673;-78
2023/11/24 01:55:32;;;;;;;18.57;3.20;;;11.40;99.90;;;;;;5063200;28;21336;-78
2023/11/24 01:57:58;;;;;;;18.70;4.00;;;11.40;99.90;;;;;;5069286;28;21155;-78
2023/11/24 02:00:25;;;;;;;13.55;2.15;;;11.30;99.90;;;;;;5040672;28;20956;-78
2023/11/24 02:02:51;;;;;;;14.68;3.42;;;11.30;99.90;;;;;;5056308;28;20187;-78
2023/11/24 02:05:18;;;;;;;9.93;3.58;;;11.30;99.90;;;;;;5051149;28;20570;-78
2023/11/24 02:07:44;;;;;;;13.05;1.80;;;11.20;99.90;;;;;;5068635;28;20173;-78
2023/11/24 02:10:11;;;;;;;9.98;2.03;;;11.10;99.90;;;;;;5073924;28;20255;-78
2023/11/24 02:12:37;;;;;;;6.97;1.45;;;11.10;99.90;;;;;;5059611;28;20577;-78
2023/11/24 02:15:06;;;;;;;10.05;2.20;;;11.00;99.90;;;;;;5068523;28;20201;-78
2023/11/24 02:17:32;;;;;;;8.15;1.75;;;10.90;99.90;;;;;;5075518;28;20219;-78
2023/11/24 02:19:58;;;;;;;8.10;1.50;;;10.80;99.90;;;;;;5045069;28;20180;-78
2023/11/24 02:22:26;;;;;;;12.45;2.60;;;10.70;99.90;;;;;;5065980;28;20184;-78
2023/11/24 02:24:52;;;;;;;11.23;2.03;;;10.70;99.90;;;;;;5046315;28;20227;-78
2023/11/24 02:27:20;;;;;;;7.07;1.67;;;10.60;99.90;;;;;;5048085;28;20661;-79
2023/11/24 02:29:48;;;;;;;13.52;1.85;;;10.50;99.90;;;;;;5048895;28;20165;-79
2023/11/24 02:32:14;;;;;;;9.90;1.90;;;10.50;99.90;;;;;;5042946;28;20226;-79
2023/11/24 02:34:40;;;;;;;11.03;2.33;;;10.40;99.90;;;;;;5069186;28;20200;-79
2023/11/24 02:37:06;;;;;;;16.70;3.43;;;10.40;99.90;;;;;;5050538;28;20942;-78
2023/11/24 02:39:32;;;;;;;11.25;2.05;;;10.30;99.90;;;;;;5073495;28;20233;-78
2023/11/24 02:41:59;;;;;;;6.68;1.77;;;10.20;99.90;;;;;;5041591;28;20173;-79
2023/11/24 02:44:25;;;;;;;11.30;2.10;;;10.20;99.90;;;;;;5070962;28;20621;-78
2023/11/24 02:46:51;;;;;;;9.77;2.05;;;10.10;99.90;;;;;;5070746;28;20173;-78
2023/11/24 02:49:18;;;;;;;10.77;1.90;;;10.00;99.90;;;;;;5071909;28;20168;-78
2023/11/24 02:51:44;;;;;;;11.35;2.08;;;10.00;99.90;;;;;;5032432;28;20177;-78
2023/11/24 02:54:10;;;;;;;13.20;1.50;;;9.90;99.90;;;;;;5066896;28;20212;-78
2023/11/24 02:56:36;;;;;;;6.13;1.70;;;9.90;99.90;;;;;;5065347;28;20549;-78
2023/11/24 02:59:02;;;;;;;8.33;1.73;;;9.90;99.90;;;;;;5043550;28;20180;-78
2023/11/24 03:01:28;;;;;;;9.03;2.20;;;9.90;99.90;;;;;;5051903;28;20184;-78
2023/11/24 03:03:53;;;;;;;7.43;1.67;;;9.90;99.90;;;;;;5050880;28;20195;-78
2023/11/24 03:06:19;;;;;;;9.40;1.97;;;9.90;99.90;;;;;;5070503;28;20263;-78
2023/11/24 03:08:45;;;;;;;12.97;3.07;;;9.90;99.90;;;;;;5053697;28;20184;-78
2023/11/24 03:11:12;;;;;;;8.07;1.40;;;9.90;99.90;;;;;;5061829;28;20168;-78
2023/11/24 03:13:38;;;;;;;4.80;1.63;;;9.80;99.90;;;;;;5071216;28;20179;-79
2023/11/24 03:16:05;;;;;;;4.47;1.27;;;9.80;99.90;;;;;;5047140;28;20583;-79
2023/11/24 03:18:31;;;;;;;8.48;2.45;;;9.80;99.90;;;;;;5047562;28;20180;-79
2023/11/24 03:20:57;;;;;;;7.23;1.50;;;9.80;99.90;;;;;;5066511;28;20191;-78
2023/11/24 03:23:23;;;;;;;7.53;1.70;;;9.80;99.90;;;;;;5063047;28;20184;-78
2023/11/24 03:25:49;;;;;;;6.57;1.40;;;9.80;99.90;;;;;;5054802;28;20548;-78
2023/11/24 03:28:16;;;;;;;8.05;1.73;;;9.80;99.90;;;;;;5066459;28;20937;-78
2023/11/24 03:30:42;;;;;;;11.93;1.67;;;9.80;99.90;;;;;;5057095;28;20297;-78
2023/11/24 03:33:08;;;;;;;9.53;2.30;;;9.70;99.90;;;;;;5059377;28;20177;-78
2023/11/24 03:35:35;;;;;;;11.30;1.77;;;9.70;99.90;;;;;;5063829;28;20677;-78
2023/11/24 03:38:00;;;;;;;4.85;1.20;;;9.60;99.90;;;;;;5062532;28;20188;-78
2023/11/24 03:40:26;;;;;;;5.40;1.30;;;9.60;99.90;;;;;;5061840;28;20230;-78
2023/11/24 03:42:52;;;;;;;4.23;1.43;;;9.50;99.90;;;;;;5061637;28;20580;-79
2023/11/24 03:45:17;;;;;;;11.97;1.87;;;9.50;99.90;;;;;;5064104;28;20604;-78
2023/11/24 03:47:43;;;;;;;6.93;1.33;;;9.50;99.90;;;;;;5045302;28;20313;-78
2023/11/24 03:50:10;;;;;;;5.97;1.10;;;9.50;99.90;;;;;;5071255;28;20658;-78
2023/11/24 03:52:36;;;;;;;6.20;1.20;;;9.40;99.90;;;;;;5057187;28;20203;-77
2023/11/24 03:55:03;;;;;;;5.70;1.47;;;9.40;99.90;;;;;;5066018;28;20563;-78
2023/11/24 03:57:29;;;;;;;7.18;1.90;;;9.40;99.90;;;;;;5045034;28;20188;-78
2023/11/24 03:59:55;;;;;;;11.07;2.03;;;9.40;99.90;;;;;;5071788;28;20518;-78
2023/11/24 04:02:20;;;;;;;6.33;1.40;;;9.40;99.90;;;;;;5050044;28;20224;-78
2023/11/24 04:04:46;;;;;;;10.63;2.10;;;9.50;99.90;;;;;;5082678;28;20578;-78
2023/11/24 04:07:13;;;;;;;9.50;2.17;;;9.50;99.90;;;;;;5050319;28;20255;-78
2023/11/24 04:09:39;;;;;;;6.45;1.50;;;9.50;99.90;;;;;;5049498;28;20185;-78
2023/11/24 04:12:05;;;;;;;8.80;2.07;;;9.50;99.90;;;;;;5059270;28;20238;-78
2023/11/24 04:14:30;;;;;;;5.97;1.23;;;9.60;99.90;;;;;;5055728;28;20205;-78
2023/11/24 04:16:56;;;;;;;5.43;1.10;;;9.60;99.90;;;;;;5057426;28;20589;-78
2023/11/24 04:19:22;;;;;;;8.27;1.17;;;9.60;99.90;;;;;;5036669;28;20709;-78
2023/11/24 04:21:47;;;;;;;8.17;1.40;;;9.60;99.90;;;;;;5052461;28;20176;-78
2023/11/24 04:24:13;;;;;;;8.10;1.00;;;9.70;99.90;;;;;;5060807;28;20204;-78
2023/11/24 04:26:39;;;;;;;6.70;1.30;;;9.70;99.90;;;;;;5069093;28;21148;-78
2023/11/24 04:29:05;;;;;;;8.47;0.90;;;9.70;99.90;;;;;;5046433;28;20244;-78
2023/11/24 04:31:31;;;;;;;10.95;1.38;;;9.70;99.90;;;;;;5062910;28;20229;-78
2023/11/24 04:33:57;;;;;;;4.07;1.00;;;9.80;99.90;;;;;;5060798;28;20272;-78
2023/11/24 04:36:22;;;;;;;5.20;0.90;;;9.80;99.90;;;;;;5070701;28;20796;-78
2023/11/24 04:38:49;;;;;;;4.53;1.00;;;9.70;99.90;;;;;;5069269;28;20213;-78
2023/11/24 04:41:15;;;;;;;3.90;1.40;;;9.70;99.90;;;;;;5061099;28;20233;-78
2023/11/24 04:43:41;;;;;;;4.90;1.42;;;9.70;99.90;;;;;;5062046;28;20172;-78
2023/11/24 04:46:08;;;;;;;7.27;2.27;;;9.70;99.90;;;;;;5052404;28;20529;-79
2023/11/24 04:48:35;;;;;;;5.18;1.30;;;9.70;99.90;;;;;;5069160;28;20309;-78
2023/11/24 04:51:01;;;;;;;6.70;1.10;;;9.70;99.90;;;;;;5060887;28;20231;-78
2023/11/24 04:53:26;;;;;;;4.90;0.90;;;9.80;99.90;;;;;;5066446;28;20173;-78
2023/11/24 04:55:52;;;;;;;10.43;1.67;;;9.70;99.90;;;;;;5066316;28;20200;-78
2023/11/24 04:58:18;;;;;;;8.25;1.60;;;9.80;99.90;;;;;;5068816;28;20211;-78
2023/11/24 05:00:44;;;;;;;6.40;1.00;;;9.80;99.90;;;;;;5070340;28;20594;-78
2023/11/24 05:03:09;;;;;;;10.90;2.50;;;9.80;99.90;;;;;;5069564;28;20180;-78
2023/11/24 05:05:35;;;;;;;4.73;1.00;;;9.80;99.90;;;;;;5064564;28;20199;-79
2023/11/24 05:08:02;;;;;;;6.60;1.33;;;9.80;99.90;;;;;;5073503;28;20542;-79
2023/11/24 05:10:28;;;;;;;7.38;1.20;;;9.80;99.90;;;;;;5055969;28;20238;-78
2023/11/24 05:12:54;;;;;;;5.70;1.20;;;9.80;99.90;;;;;;5073923;28;20630;-78
2023/11/24 05:15:19;;;;;;;5.70;1.20;;;9.80;99.90;;;;;;5068454;28;20188;-79
2023/11/24 05:17:45;;;;;;;4.47;1.10;;;9.80;99.90;;;;;;5060449;28;20196;-79
2023/11/24 05:20:14;;;;;;;3.40;0.93;;;9.80;99.90;;;;;;5071718;28;20208;-78
2023/11/24 05:22:40;;;;;;;5.40;1.15;;;9.70;99.90;;;;;;5047121;28;20657;-79
2023/11/24 05:25:07;;;;;;;7.43;1.57;;;9.70;99.90;;;;;;5071868;28;20204;-79
2023/11/24 05:27:33;;;;;;;5.80;1.33;;;9.70;99.90;;;;;;5073503;28;20263;-79
2023/11/24 05:29:58;;;;;;;3.70;1.27;;;9.60;99.90;;;;;;5064933;28;20314;-78
2023/11/24 05:32:24;;;;;;;8.23;1.20;;;9.60;99.90;;;;;;5068074;28;20215;-78
2023/11/24 05:34:53;;;;;;;8.30;1.10;;;9.60;99.90;;;;;;5083863;28;20196;-78
2023/11/24 05:37:19;;;;;;;6.57;1.35;;;9.60;99.90;;;;;;5053856;28;20607;-79
2023/11/24 05:39:45;;;;;;;3.10;1.20;;;9.60;99.90;;;;;;5060047;28;20180;-79
2023/11/24 05:42:12;;;;;;;6.07;1.33;;;9.60;99.90;;;;;;5073345;28;20581;-79
2023/11/24 05:44:38;;;;;;;2.80;0.90;;;9.60;99.90;;;;;;5073107;28;20298;-79
2023/11/24 05:47:04;;;;;;;5.60;1.40;;;9.60;99.90;;;;;;5056562;28;20180;-78
2023/11/24 05:49:32;;;;;;;3.80;1.10;;;9.60;99.90;;;;;;5060674;28;20173;-78
2023/11/24 05:51:58;;;;;;;3.15;1.17;;;9.70;99.90;;;;;;5051910;28;20184;-78
2023/11/24 05:54:24;;;;;;;6.03;0.97;;;9.70;99.90;;;;;;5064288;28;20212;-78
2023/11/24 05:56:49;;;;;;;7.23;1.33;;;9.70;99.90;;;;;;5073142;28;20184;-78
2023/11/24 05:59:15;;;;;;;10.10;1.27;;;9.70;99.90;;;;;;5070563;28;20639;-79
2023/11/24 06:01:42;;;;;;;8.47;2.00;;;9.70;99.90;;;;;;5072988;28;20289;-78
2023/11/24 06:04:09;;;;;;;6.97;1.33;;;9.70;99.90;;;;;;5061104;28;20208;-78
2023/11/24 06:06:35;;;;;;;7.38;1.50;;;9.70;99.90;;;;;;5051764;28;20180;-78
2023/11/24 06:09:01;;;;;;;6.32;1.05;;;9.70;99.90;;;;;;5051803;28;20179;-78
2023/11/24 06:11:28;;;;;;;9.70;1.85;;;9.80;99.90;;;;;;5065159;28;20595;-78
2023/11/24 06:13:53;;;;;;;8.27;1.75;;;9.80;99.90;;;;;;5071165;28;20230;-78
2023/11/24 06:16:20;;;;;;;5.83;1.13;;;9.80;99.90;;;;;;5073320;28;20642;-78
2023/11/24 06:18:46;;;;;;;6.50;1.10;;;9.90;99.90;;;;;;5073967;28;20181;-79
2023/11/24 06:21:12;;;;;;;8.10;2.05;;;9.90;99.90;;;;;;5057490;28;20187;-79
2023/11/24 06:23:39;;;;;;;5.37;1.43;;;9.90;99.90;;;;;;5072814;28;20176;-79
2023/11/24 06:26:08;;;;;;;7.38;1.40;;;9.90;99.90;;;;;;5072607;28;20638;-79
2023/11/24 06:28:34;;;;;;;8.18;1.27;;;9.90;99.90;;;;;;5071176;28;20234;-78
2023/11/24 06:31:00;;;;;;;5.30;1.13;;;10.00;99.90;;;;;;5070642;28;20196;-79
2023/11/24 06:33:27;;;;;;;6.00;1.35;;;10.00;99.90;;;;;;5067467;28;20581;-79
2023/11/24 06:35:54;;;;;;;8.27;2.40;;;10.00;99.90;;;;;;5067573;28;20261;-79
2023/11/24 06:38:20;;;;;;;6.68;1.13;;;10.00;99.90;;;;;;5064158;28;20176;-78
2023/11/24 06:40:46;;;;;;;6.37;1.67;;;10.10;99.90;;;;;;5063239;28;20187;-80
2023/11/24 06:43:12;;;;;;;9.50;1.33;;;10.10;99.90;;;;;;5061338;28;20575;-80
2023/11/24 06:45:38;;;;;;;7.37;1.40;;;10.10;99.90;;;;;;5063946;28;20648;-79
2023/11/24 06:48:05;;;;;;;6.93;1.20;;;10.10;99.90;;;;;;5070124;28;20575;-79
2023/11/24 06:50:31;;;;;;;7.40;1.70;;;10.10;99.90;;;;;;5058869;28;20263;-79
2023/11/24 06:52:57;;;;;;;7.30;1.50;;;10.10;99.90;;;;;;5070511;28;20280;-79
2023/11/24 06:55:23;;;;;;;8.07;1.47;;;10.10;99.90;;;;;;5060417;28;20288;-79
2023/11/24 06:57:48;;;;;;;5.90;1.30;;;10.00;99.90;;;;;;5061971;28;20212;-79
2023/11/24 07:00:17;;;;;;;7.80;1.60;;;10.00;99.90;;;;;;5069018;28;20184;-80
2023/11/24 07:02:47;;;;;;;8.60;1.23;;;10.00;99.90;;;;;;5065919;28;20191;-80
2023/11/24 07:05:13;;;;;;;5.13;1.13;;;10.00;99.90;;;;;;5069697;28;20204;-80
2023/11/24 07:07:38;;;;;;;4.97;0.97;;;10.00;99.90;;;;;;5057279;28;20212;-79
2023/11/24 07:10:06;;;;;;;7.80;1.37;;;10.00;99.90;;;;;;5059951;28;20674;-80
2023/11/24 07:12:31;;;;;;;8.40;1.55;;;10.00;99.90;;;;;;5059158;28;20854;-80
2023/11/24 07:14:59;;;;;;;8.23;1.30;;;10.00;99.90;;;;;;5059487;28;20232;-80
2023/11/24 07:17:24;;;;;;;5.70;0.90;;;10.00;99.90;;;;;;5061079;28;20176;-79
2023/11/24 07:19:50;;;;;;;5.83;1.33;;;10.00;99.90;;;;;;5061030;28;20176;-78
2023/11/24 07:22:16;;;;;;;7.10;1.43;;;10.00;99.90;;;;;;5060493;28;20611;-77
2023/11/24 07:24:42;;;;;;;4.20;0.90;;;10.00;99.90;;;;;;5068438;28;20208;-77
2023/11/24 07:27:08;;;;;;;8.35;1.35;;;10.00;99.90;;;;;;5051861;28;20263;-77
2023/11/24 07:29:33;;;;;;;5.27;1.00;;;10.00;99.90;;;;;;5069738;28;20255;-77
2023/11/24 07:32:02;;;;;;;5.67;1.10;;;10.00;99.90;;;;;;5065243;28;20173;-77
2023/11/24 07:34:32;;;;;;;6.38;1.05;;;10.00;99.90;;;;;;5094738;28;20213;-78
2023/11/24 07:37:00;;;;;;;11.57;1.50;;;10.10;99.90;;;;;;5077341;28;20180;-78
2023/11/24 07:39:30;;;;;;;3.75;0.93;;;10.10;99.90;;;;;;5087576;28;20180;-77
2023/11/24 07:41:58;;;;;;;6.13;1.40;;;10.10;99.90;;;;;;5089579;28;20210;-78
2023/11/24 07:44:31;;;;;;;4.22;0.90;;;10.20;99.90;;;;;;5044909;28;20317;-77
2023/11/24 07:46:58;;;;;;;4.10;1.10;;;10.20;99.90;;;;;;5050837;28;20673;-78
2023/11/24 07:49:24;;;;;;;10.10;2.60;;;10.20;99.90;;;;;;5059976;28;20212;-77
2023/11/24 07:51:51;;;;;;;6.30;1.50;;;10.20;99.90;;;;;;5038430;28;20253;-78
2023/11/24 07:54:17;;;;;;;9.45;1.80;;;10.20;99.90;;;;;;5059969;28;20761;-79
2023/11/24 07:56:44;;;;;;;7.90;1.92;;;10.20;99.90;;;;;;5051062;28;20169;-78
2023/11/24 07:59:11;;;;;;;6.45;1.50;;;10.20;99.90;;;;;;5059130;28;20614;-77
2023/11/24 08:01:38;;;;;;;6.32;1.75;;;10.20;99.90;;;;;;5062485;28;20570;-78
2023/11/24 08:04:04;;;;;;;8.90;2.38;;;10.20;99.90;;;;;;5063057;28;20193;-77
2023/11/24 08:06:30;;;;;;;6.40;1.20;;;10.10;99.90;;;;;;5053494;28;20177;-77
2023/11/24 08:09:01;;;;;;;6.90;1.00;;;10.10;99.90;;;;;;5072612;28;20184;-77
2023/11/24 08:11:26;;;;;;;6.65;1.10;;;10.00;99.90;;;;;;5059397;28;20597;-77
2023/11/24 08:13:53;;;;;;;2.80;0.90;;;9.90;99.90;;;;;;5032374;28;21118;-78
2023/11/24 08:16:19;;;;;;;2.83;1.13;;;9.80;99.90;;;;;;5068649;28;20606;-77
2023/11/24 08:18:45;;;;;;;2.60;1.00;;;9.70;99.90;;;;;;5069224;28;20263;-77
2023/11/24 08:21:11;;;;;;;2.50;0.70;;;9.70;99.90;;;;;;5062348;28;20631;-77
2023/11/24 08:23:37;;;;;;;2.80;0.70;;;9.60;99.90;;;;;;5070670;28;20532;-77
2023/11/24 08:26:05;;;;;;;3.78;0.90;;;9.60;99.90;;;;;;5069616;28;20820;-77
2023/11/24 08:28:31;;;;;;;5.75;0.70;;;9.40;99.90;;;;;;5070161;28;20252;-76
2023/11/24 08:30:57;;;;;;;8.53;1.33;;;9.40;99.90;;;;;;5060795;28;20267;-76
2023/11/24 08:33:22;;;;;;;2.60;0.70;;;9.40;99.90;;;;;;5060970;28;20586;-77
2023/11/24 08:35:48;;;;;;;1.73;0.60;;;9.30;99.90;;;;;;5069778;28;20258;-77
2023/11/24 08:38:14;;;;;;;3.30;1.00;;;9.30;99.90;;;;;;5054320;28;20172;-77
2023/11/24 08:40:40;;;;;;;5.07;0.70;;;9.30;99.90;;;;;;5074252;28;20275;-76
2023/11/24 08:43:05;;;;;;;3.07;0.77;;;9.20;99.90;;;;;;5066453;28;20188;-77
2023/11/24 08:45:34;;;;;;;2.97;1.07;;;9.20;99.90;;;;;;5073089;28;20570;-77
2023/11/24 08:48:00;;;;;;;6.00;0.70;;;9.20;99.90;;;;;;5075848;28;20180;-76
2023/11/24 08:50:28;;;;;;;3.05;0.85;;;9.30;99.90;;;;;;5072836;28;20229;-77
2023/11/24 08:52:54;;;;;;;1.83;0.70;;;9.40;99.90;;;;;;5055991;28;20170;-76
2023/11/24 08:55:20;;;;;;;2.20;0.60;;;9.50;99.90;;;;;;5064157;28;20569;-77
2023/11/24 08:57:46;;;;;;;5.77;0.80;;;9.60;99.90;;;;;;5072604;28;20172;-77
2023/11/24 09:00:14;;;;;;;2.33;1.00;;;9.70;99.90;;;;;;5073731;28;20222;-77
2023/11/24 09:02:41;;;;;;;2.72;1.25;;;9.80;99.90;;;;;;5072603;28;20518;-77
2023/11/24 09:05:09;;;;;;;4.03;1.17;;;9.80;99.90;;;;;;5073452;28;20211;-77
2023/11/24 09:07:35;;;;;;;1.40;0.60;;;9.90;99.90;;;;;;5072054;28;20576;-77
2023/11/24 09:10:02;;;;;;;2.35;0.82;;;10.00;99.90;;;;;;5073699;28;20706;-77
2023/11/24 09:12:28;;;;;;;4.18;0.90;;;10.00;99.90;;;;;;5073616;28;20172;-76
2023/11/24 09:14:54;;;;;;;4.07;0.90;;;10.10;99.90;;;;;;5060232;28;20193;-76
2023/11/24 09:17:22;;;;;;;10.17;1.10;;;10.20;99.90;;;;;;5063925;28;20642;-76
2023/11/24 09:19:49;;;;;;;4.20;0.98;;;10.20;99.90;;;;;;5065940;28;20165;-77
2023/11/24 09:22:15;;;;;;;5.10;0.80;;;10.40;99.90;;;;;;5055445;28;20172;-76
2023/11/24 09:24:40;;;;;;;3.77;0.83;;;10.40;99.90;;;;;;5063831;28;20215;-77
2023/11/24 09:27:06;;;;;;;3.77;0.90;;;10.50;99.90;;;;;;5069329;28;20169;-76
2023/11/24 09:29:32;;;;;;;6.27;1.87;;;10.50;99.90;;;;;;5060737;28;20185;-76
2023/11/24 09:31:58;;;;;;;4.80;0.80;;;10.50;99.90;;;;;;5067760;28;20177;-76
2023/11/24 09:34:29;;;;;;;6.75;1.00;;;10.50;99.90;;;;;;5070773;28;20581;-76
2023/11/24 09:36:55;;;;;;;4.47;1.40;;;10.60;99.90;;;;;;5072972;28;20171;-76
2023/11/24 09:39:25;;;;;;;2.53;1.00;;;10.60;99.90;;;;;;5073122;28;20210;-77
2023/11/24 09:41:52;;;;;;;4.10;1.00;;;10.50;99.90;;;;;;5058245;28;20566;-77
2023/11/24 09:44:18;;;;;;;8.32;1.15;;;10.50;99.90;;;;;;5085329;28;20963;-77
2023/11/24 09:46:46;;;;;;;5.53;0.90;;;10.50;99.90;;;;;;5058864;28;20244;-76
2023/11/24 09:49:15;;;;;;;5.45;0.80;;;10.60;99.90;;;;;;5067308;28;20594;-77
2023/11/24 09:51:41;;;;;;;3.80;0.77;;;10.60;99.90;;;;;;5054973;28;20181;-77
2023/11/24 09:54:08;;;;;;;4.00;1.55;;;10.60;99.90;;;;;;5063158;28;20204;-77
2023/11/24 09:56:34;;;;;;;7.22;1.20;;;10.60;99.90;;;;;;5072073;28;20179;-77
2023/11/24 09:59:08;;;;;;;3.88;1.00;;;10.60;99.90;;;;;;5071989;28;20168;-77
2023/11/24 10:01:38;;;;;;;4.22;0.98;;;10.60;99.90;;;;;;5073268;28;20218;-77
2023/11/24 10:04:05;;;;;;;6.28;1.10;;;10.60;99.90;;;;;;5070905;28;20200;-77
2023/11/24 10:06:33;;;;;;;6.07;1.10;;;10.60;99.90;;;;;;5063168;28;20172;-77
2023/11/24 10:08:59;;;;;;;5.90;1.00;;;10.60;99.90;;;;;;5070940;28;20176;-77
2023/11/24 10:11:28;;;;;;;3.57;0.90;;;10.60;99.90;;;;;;5072397;28;20250;-77
2023/11/24 10:13:55;;;;;;;4.15;0.90;;;10.60;99.90;;;;;;5057133;28;20173;-77
2023/11/24 10:16:24;;;;;;;4.00;0.93;;;10.60;99.90;;;;;;5067806;28;20230;-77
2023/11/24 10:18:51;;;;;;;2.72;0.70;;;10.50;99.90;;;;;;5064064;28;20207;-77
2023/11/24 10:21:17;;;;;;;2.22;0.70;;;10.50;99.90;;;;;;5071068;28;20164;-76
2023/11/24 10:23:43;;;;;;;3.30;0.80;;;10.40;99.90;;;;;;5058566;28;20204;-76
2023/11/24 10:26:13;;;;;;;4.93;1.17;;;10.40;99.90;;;;;;5068105;28;20204;-76
2023/11/24 10:28:40;;;;;;;4.05;0.90;;;10.30;99.90;;;;;;5055437;28;20176;-76
2023/11/24 10:31:07;;;;;;;3.45;0.93;;;10.30;99.90;;;;;;5071734;28;20175;-76
2023/11/24 10:33:34;;;;;;;6.18;1.38;;;10.20;99.90;;;;;;5071871;28;20276;-76
2023/11/24 10:36:00;;;;;;;5.50;0.80;;;10.20;99.90;;;;;;5072153;28;20279;-77
2023/11/24 10:38:31;;;;;;;3.37;1.23;;;10.10;99.90;;;;;;5064771;28;20213;-76
2023/11/24 10:40:59;;;;;;;3.55;0.90;;;10.00;99.90;;;;;;5054182;28;20261;-76
2023/11/24 10:43:31;;;;;;;2.80;0.90;;;9.80;99.90;;;;;;5053911;28;20176;-76
2023/11/24 10:46:01;;;;;;;5.70;1.40;;;9.60;99.90;;;;;;5071627;28;20207;-76
2023/11/24 10:48:33;;;;;;;3.67;0.75;;;9.50;99.90;;;;;;5070282;28;20182;-75
2023/11/24 10:51:04;;;;;;;2.90;0.80;;;9.40;99.90;;;;;;5063432;28;20168;-75
2023/11/24 10:53:35;;;;;;;1.88;0.63;;;9.20;99.90;;;;;;5063326;28;20239;-76
2023/11/24 10:56:03;;;;;;;3.63;0.70;;;9.10;99.90;;;;;;5070256;28;20208;-75
2023/11/24 10:58:33;;;;;;;3.78;0.65;;;8.90;99.90;;;;;;5071397;28;20187;-76
2023/11/24 11:00:59;;;;;;;3.35;0.70;;;8.80;99.90;;;;;;5064858;28;20177;-76
2023/11/24 11:03:27;;;;;;;2.80;0.60;;;8.70;99.90;;;;;;5067918;28;20275;-76
2023/11/24 11:06:17;;;;;;;2.63;0.73;;;8.60;99.90;;;;;;5071237;28;20569;-77
2023/11/24 11:09:07;;;;;;;3.03;0.90;;;8.60;99.90;;;;;;5070341;28;20215;-75
2023/11/24 11:11:56;;;;;;;2.50;0.75;;;8.60;99.90;;;;;;5045313;28;20184;-76
2023/11/24 11:14:22;;;;;;;2.80;0.80;;;8.60;99.90;;;;;;5054675;28;20559;-75
2023/11/24 11:16:51;;;;;;;1.65;0.60;;;8.60;99.90;;;;;;5058127;28;20238;-76
2023/11/24 11:19:33;;;;;;;5.25;1.10;;;8.70;99.90;;;;;;5075009;28;20565;-75
2023/11/24 11:22:00;;;;;;;2.10;0.75;;;8.70;99.90;;;;;;5063130;28;20263;-75
2023/11/24 11:24:30;;;;;;;1.95;0.73;;;8.80;99.90;;;;;;5075942;28;20299;-76
2023/11/24 11:26:57;;;;;;;1.70;0.70;;;8.80;99.90;;;;;;5068350;28;20531;-76
2023/11/24 11:29:24;;;;;;;2.60;0.80;;;8.90;99.90;;;;;;5077971;28;20173;-76
2023/11/24 11:31:50;;;;;;;3.10;0.90;;;9.00;99.90;;;;;;5071276;28;20172;-76
2023/11/24 11:34:18;;;;;;;2.50;0.70;;;9.10;99.90;;;;;;5086496;28;20200;-76
2023/11/24 11:37:05;;;;;;;5.35;1.00;;;9.20;99.90;;;;;;5071155;28;20164;-76
2023/11/24 11:39:44;;;;;;;3.53;0.85;;;9.20;99.90;;;;;;5069339;28;20176;-77
2023/11/24 11:42:10;;;;;;;7.72;1.13;;;9.20;99.90;;;;;;5069708;28;20187;-77
2023/11/24 11:44:39;;;;;;;7.20;1.08;;;9.20;99.90;;;;;;5052555;28;20200;-77
2023/11/24 11:47:31;;;;;;;4.15;1.00;;;9.20;99.90;;;;;;5069485;28;20184;-77
2023/11/24 11:49:57;;;;;;;2.35;0.80;;;9.20;99.90;;;;;;5065533;28;20714;-77
2023/11/24 11:52:25;;;;;;;2.60;0.80;;;9.30;99.90;;;;;;5067305;28;20241;-76
2023/11/24 11:54:52;;;;;;;2.50;1.02;;;9.30;99.90;;;;;;5043845;28;20219;-76
2023/11/24 11:57:21;;;;;;;4.45;1.08;;;9.40;99.90;;;;;;5069145;28;20665;-75
2023/11/24 11:59:51;;;;;;;4.30;1.08;;;9.40;99.90;;;;;;5067765;28;20188;-76
2023/11/24 12:02:20;;;;;;;5.20;0.80;;;9.50;99.90;;;;;;5086268;28;20184;-75
2023/11/24 12:04:47;;;;;;;3.28;0.77;;;9.40;99.90;;;;;;5069064;28;20244;-75
2023/11/24 12:07:14;;;;;;;3.60;0.82;;;9.40;99.90;;;;;;5069486;28;20173;-76
2023/11/24 12:09:41;;;;;;;3.20;0.80;;;9.40;99.90;;;;;;5052133;28;20184;-76
2023/11/24 12:12:09;;;;;;;3.35;0.70;;;9.40;99.90;;;;;;5038299;28;20536;-77
2023/11/24 12:14:38;;;;;;;3.83;0.60;;;9.20;99.90;;;;;;5070515;28;20196;-76
2023/11/24 12:17:04;;;;;;;2.53;0.63;;;9.20;99.90;;;;;;5068822;28;20199;-77
2023/11/24 12:19:31;;;;;;;1.55;0.60;;;9.00;99.90;;;;;;5056454;28;20180;-76
2023/11/24 12:22:02;;;;;;;1.45;0.65;;;9.00;99.90;;;;;;5043673;28;20165;-77
2023/11/24 12:24:29;;;;;;;2.55;0.95;;;8.90;99.90;;;;;;5070641;28;20204;-76
2023/11/24 12:26:58;;;;;;;2.25;0.70;;;8.90;99.90;;;;;;5065833;28;20182;-76
2023/11/24 12:29:27;;;;;;;1.77;0.70;;;8.80;99.90;;;;;;5058898;28;20168;-76
2023/11/24 12:31:53;;;;;;;3.42;0.60;;;8.70;99.90;;;;;;5066227;28;20615;-76
2023/11/24 12:34:24;;;;;;;2.55;0.70;;;8.70;99.90;;;;;;5074357;28;20554;-76
2023/11/24 12:36:54;;;;;;;2.03;0.70;;;8.60;99.90;;;;;;5064492;28;20628;-76
2023/11/24 12:39:24;;;;;;;2.60;0.60;;;8.50;99.90;;;;;;5056873;28;20264;-76
2023/11/24 12:41:54;;;;;;;2.45;0.70;;;8.50;99.90;;;;;;5066093;28;20511;-76
2023/11/24 12:44:20;;;;;;;1.95;0.60;;;8.40;99.90;;;;;;5073988;28;20204;-77
2023/11/24 12:46:46;;;;;;;1.30;0.50;;;8.30;99.90;;;;;;5064312;28;20249;-76
2023/11/24 12:49:12;;;;;;;2.38;0.60;;;8.30;99.90;;;;;;5046900;28;20180;-76